Terminal Aerodrome Forecast
Issued by NWS Wilmington, NC

Home | Current Version | Previous Version | Text Only | Print | Product List | Glossary On
Versions: 1 2 3 4 5 6 7 8 9 10 11 12 13 14 15
873
FTUS42 KILM 272320
TAFFLO
TAF
KFLO 272320Z 2800/2824 18007KT P6SM SCT080 BKN250
     FM280200 18007KT P6SM VCSH BKN060
     FM280700 18007KT P6SM SCT010 BKN060
     FM281400 21009KT P6SM FEW250
     FM282000 20009KT P6SM FEW050=

USA.gov is the U.S. government's official web portal to all federal, state and local government web resources and services.